Time;durP1;ratioP1;P1;durP2;ratioP2;P2;SDS_P1;SDS_P2;PMS_P1;PMS_P2;Temp;Humidity;BMP_temperature;BMP_pressure;BME280_temperature;BME280_humidity;BME280_pressure;Samples;Min_cycle;Max_cycle;Signal;HPM_P1;HPM_P2
2022/01/13 00:01:37;;;;;;;;;;;2.40;99.90;;;;;;4963219;28;20069;-71
2022/01/13 00:04:04;;;;;;;;;;;2.40;99.90;;;;;;4963645;28;20060;-71
2022/01/13 00:06:31;;;;;;;;;;;2.30;99.90;;;;;;4963575;28;20143;-71
2022/01/13 00:08:58;;;;;;;;;;;2.40;99.90;;;;;;4963245;28;21169;-71
2022/01/13 00:11:27;;;;;;;;;;;2.40;99.90;;;;;;4963418;28;20133;-71
2022/01/13 00:14:10;;;;;;;;;;;2.30;99.90;;;;;;4962908;28;20154;-71
2022/01/13 00:16:44;;;;;;;;;;;2.30;99.90;;;;;;4963436;28;20063;-72
2022/01/13 00:19:33;;;;;;;;;;;2.30;99.90;;;;;;4971414;28;21139;-71
2022/01/13 00:22:13;;;;;;;;;;;2.20;99.90;;;;;;4976319;28;20069;-71
2022/01/13 00:24:40;;;;;;;;;;;2.20;99.90;;;;;;4966744;28;20183;-71
2022/01/13 00:27:12;;;;;;;;;;;2.20;99.90;;;;;;4966212;28;20069;-71
2022/01/13 00:29:41;;;;;;;;;;;2.20;99.90;;;;;;4966205;28;20059;-71
2022/01/13 00:32:10;;;;;;;;;;;2.20;99.90;;;;;;4966637;28;20069;-71
2022/01/13 00:34:37;;;;;;;;;;;2.10;99.90;;;;;;4966341;28;20259;-71
2022/01/13 00:37:04;;;;;;;;;;;2.10;99.90;;;;;;4967454;28;20159;-71
2022/01/13 00:39:31;;;;;;;;;;;2.10;99.90;;;;;;4965623;28;20067;-70
2022/01/13 00:41:58;;;;;;;;;;;2.00;99.90;;;;;;4965396;28;20061;-70
2022/01/13 00:44:27;;;;;;;;;;;1.90;99.90;;;;;;4966949;28;20170;-71
2022/01/13 00:46:58;;;;;;;;;;;1.90;99.90;;;;;;4966952;28;20068;-69
2022/01/13 00:49:25;;;;;;;;;;;1.90;99.90;;;;;;4966202;28;20161;-70
2022/01/13 00:51:53;;;;;;;;;;;1.90;99.90;;;;;;4965237;28;20154;-71
2022/01/13 00:54:20;;;;;;;;;;;1.80;99.90;;;;;;4966861;28;20066;-71
2022/01/13 00:56:47;;;;;;;;;;;1.80;99.90;;;;;;4966798;28;20070;-71
2022/01/13 00:59:15;;;;;;;;;;;1.80;99.90;;;;;;4966229;28;20163;-71
2022/01/13 01:01:44;;;;;;;;;;;1.80;99.90;;;;;;4965822;28;20061;-70
2022/01/13 01:04:12;;;;;;;;;;;1.80;99.90;;;;;;4966737;28;20068;-70
2022/01/13 01:06:39;;;;;;;;;;;1.80;99.90;;;;;;4966533;28;20051;-71
2022/01/13 01:09:12;;;;;;;;;;;1.80;99.90;;;;;;4965197;28;20066;-71
2022/01/13 01:11:40;;;;;;;;;;;1.80;99.90;;;;;;4966200;28;20155;-71
2022/01/13 01:14:08;;;;;;;;;;;1.80;99.90;;;;;;4976332;28;20069;-71
2022/01/13 01:16:36;;;;;;;;;;;1.80;99.90;;;;;;4977252;28;20191;-71
2022/01/13 01:19:07;;;;;;;;;;;1.80;99.90;;;;;;4984882;28;20215;-71
2022/01/13 01:22:14;;;;;;;;;;;1.70;99.90;;;;;;4985238;28;20073;-71
2022/01/13 01:27:28;;;;;;;;;;;1.70;99.90;;;;;;4983546;28;20560;-71
2022/01/13 01:29:59;;;;;;;;;;;1.70;99.90;;;;;;4984195;28;21154;-71
2022/01/13 01:32:27;;;;;;;;;;;1.70;99.90;;;;;;4985836;28;20067;-71
2022/01/13 01:34:58;;;;;;;;;;;1.70;99.90;;;;;;4985550;28;20069;-69
2022/01/13 01:37:26;;;;;;;;;;;1.70;99.90;;;;;;4985348;28;20052;-69
2022/01/13 01:39:54;;;;;;;;;;;1.70;99.90;;;;;;4984861;28;21272;-70
2022/01/13 01:42:22;;;;;;;;;;;1.70;99.90;;;;;;4984267;28;20060;-70
2022/01/13 01:44:52;;;;;;;;;;;1.70;99.90;;;;;;4984702;28;20064;-70
2022/01/13 01:47:20;;;;;;;;;;;1.70;99.90;;;;;;4986013;28;20201;-72
2022/01/13 01:49:48;;;;;;;;;;;1.70;99.90;;;;;;4984615;28;20060;-70
2022/01/13 01:52:18;;;;;;;;;;;1.70;99.90;;;;;;4984552;28;20060;-70
2022/01/13 01:54:46;;;;;;;;;;;1.70;99.90;;;;;;4984765;28;20061;-71
2022/01/13 01:57:13;;;;;;;;;;;1.60;99.90;;;;;;4984867;28;20171;-71
2022/01/13 01:59:42;;;;;;;;;;;1.60;99.90;;;;;;4984045;28;21150;-69
2022/01/13 02:02:10;;;;;;;;;;;1.60;99.90;;;;;;4984396;28;21147;-70
2022/01/13 02:04:37;;;;;;;;;;;1.60;99.90;;;;;;4984923;28;20199;-71
2022/01/13 02:07:07;;;;;;;;;;;1.50;99.90;;;;;;4984979;28;20101;-71
2022/01/13 02:09:37;;;;;;;;;;;1.50;99.90;;;;;;4984207;28;20154;-71
2022/01/13 02:12:08;;;;;;;;;;;1.50;99.90;;;;;;4984097;28;21132;-71
2022/01/13 02:14:48;;;;;;;;;;;1.40;99.90;;;;;;4985171;28;20089;-71
2022/01/13 02:17:22;;;;;;;;;;;1.40;99.90;;;;;;4985078;28;20076;-71
2022/01/13 02:19:51;;;;;;;;;;;1.40;99.90;;;;;;4983863;28;20227;-71
2022/01/13 02:22:20;;;;;;;;;;;1.40;99.90;;;;;;4984409;28;20069;-71
2022/01/13 02:24:47;;;;;;;;;;;1.40;99.90;;;;;;4983984;28;20060;-71
2022/01/13 02:27:14;;;;;;;;;;;1.40;99.90;;;;;;4984231;28;20067;-68
2022/01/13 02:29:41;;;;;;;;;;;1.30;99.90;;;;;;4984847;28;20057;-69
2022/01/13 02:32:09;;;;;;;;;;;1.30;99.90;;;;;;4983130;28;20074;-70
2022/01/13 02:34:36;;;;;;;;;;;1.30;99.90;;;;;;4983946;28;20097;-71
2022/01/13 02:37:04;;;;;;;;;;;1.20;99.90;;;;;;4983920;28;21056;-70
2022/01/13 02:39:33;;;;;;;;;;;1.20;99.90;;;;;;4983769;28;21256;-70
2022/01/13 02:42:02;;;;;;;;;;;1.20;99.90;;;;;;4983374;28;21077;-70
2022/01/13 02:44:30;;;;;;;;;;;1.20;99.90;;;;;;4984156;28;20058;-71
2022/01/13 02:47:10;;;;;;;;;;;1.20;99.90;;;;;;4984201;28;20051;-70
2022/01/13 02:49:38;;;;;;;;;;;1.20;99.90;;;;;;4984071;28;20052;-71
2022/01/13 02:52:05;;;;;;;;;;;1.20;99.90;;;;;;4983318;28;20075;-71
2022/01/13 02:54:34;;;;;;;;;;;1.20;99.90;;;;;;4984111;28;21130;-71
2022/01/13 02:57:01;;;;;;;;;;;1.10;99.90;;;;;;4984502;28;20091;-71
2022/01/13 02:59:29;;;;;;;;;;;1.10;99.90;;;;;;4981950;28;20065;-70
2022/01/13 03:01:56;;;;;;;;;;;1.20;99.90;;;;;;4983136;28;20170;-71
2022/01/13 03:04:24;;;;;;;;;;;1.10;99.90;;;;;;4984259;28;20061;-71
2022/01/13 03:06:51;;;;;;;;;;;1.10;99.90;;;;;;4984049;28;20213;-71
2022/01/13 03:09:21;;;;;;;;;;;1.10;99.90;;;;;;4984125;28;20222;-71
2022/01/13 03:11:50;;;;;;;;;;;1.10;99.90;;;;;;4983827;28;20057;-70
2022/01/13 03:14:18;;;;;;;;;;;1.10;99.90;;;;;;4984591;28;20203;-70
2022/01/13 03:16:45;;;;;;;;;;;1.10;99.90;;;;;;4984111;28;20068;-70
2022/01/13 03:19:12;;;;;;;;;;;1.00;99.90;;;;;;4979875;28;21140;-71
2022/01/13 03:21:40;;;;;;;;;;;1.10;99.90;;;;;;4981098;28;20069;-70
2022/01/13 03:24:09;;;;;;;;;;;1.10;99.90;;;;;;4983979;28;20069;-70
2022/01/13 03:26:37;;;;;;;;;;;1.10;99.90;;;;;;4983784;28;20066;-71
2022/01/13 03:29:15;;;;;;;;;;;1.10;99.90;;;;;;4983419;28;20053;-70
2022/01/13 03:31:43;;;;;;;;;;;1.00;99.90;;;;;;4983767;28;20139;-70
2022/01/13 03:34:11;;;;;;;;;;;0.90;99.90;;;;;;4983780;28;20052;-69
2022/01/13 03:36:38;;;;;;;;;;;0.90;99.90;;;;;;4983804;28;20067;-71
2022/01/13 03:39:06;;;;;;;;;;;0.90;99.90;;;;;;4983371;28;20347;-70
2022/01/13 03:41:34;;;;;;;;;;;0.90;99.90;;;;;;4983929;28;20142;-71
2022/01/13 03:44:05;;;;;;;;;;;0.90;99.90;;;;;;4982785;28;20277;-69
2022/01/13 03:46:35;;;;;;;;;;;0.90;99.90;;;;;;4983838;28;20059;-71
2022/01/13 03:49:03;;;;;;;;;;;0.90;99.90;;;;;;4983338;28;20067;-70
2022/01/13 03:51:46;;;;;;;;;;;0.90;99.90;;;;;;4984370;28;20052;-70
2022/01/13 03:54:32;;;;;;;;;;;0.90;99.90;;;;;;4983497;28;21120;-70
2022/01/13 03:57:17;;;;;;;;;;;0.90;99.90;;;;;;4985742;28;20096;-71
2022/01/13 03:59:56;;;;;;;;;;;0.90;99.90;;;;;;4973885;28;20086;-70
2022/01/13 04:02:26;;;;;;;;;;;0.80;99.90;;;;;;4987400;28;20057;-69
2022/01/13 04:04:53;;;;;;;;;;;0.80;99.90;;;;;;4988047;28;21206;-71
2022/01/13 04:07:21;;;;;;;;;;;0.80;99.90;;;;;;4987297;28;20069;-71
2022/01/13 04:10:09;;;;;;;;;;;0.80;99.90;;;;;;4987313;28;20132;-71
2022/01/13 04:12:36;;;;;;;;;;;0.80;99.90;;;;;;4987364;28;21044;-71
2022/01/13 04:15:04;;;;;;;;;;;0.80;99.90;;;;;;4987410;28;20060;-70
2022/01/13 04:17:33;;;;;;;;;;;0.80;99.90;;;;;;4986647;28;20100;-70
2022/01/13 04:20:00;;;;;;;;;;;0.80;99.90;;;;;;4986950;28;20079;-69
2022/01/13 04:22:27;;;;;;;;;;;0.70;99.90;;;;;;4986916;28;20066;-71
2022/01/13 04:24:54;;;;;;;;;;;0.70;99.90;;;;;;4986953;28;21232;-70
2022/01/13 04:27:23;;;;;;;;;;;0.70;99.90;;;;;;4987167;28;21194;-71
2022/01/13 04:30:11;;;;;;;;;;;0.70;99.90;;;;;;4985950;28;20227;-72
2022/01/13 04:32:39;;;;;;;;;;;0.70;99.90;;;;;;4986716;28;20066;-71
2022/01/13 04:35:07;;;;;;;;;;;0.70;99.90;;;;;;4986674;28;20065;-71
2022/01/13 04:37:35;;;;;;;;;;;0.60;99.90;;;;;;4986635;28;20060;-71
2022/01/13 04:40:02;;;;;;;;;;;0.60;99.90;;;;;;4986295;28;20133;-71
2022/01/13 04:42:34;;;;;;;;;;;0.60;99.90;;;;;;4985765;28;20068;-71
2022/01/13 04:45:03;;;;;;;;;;;0.50;99.90;;;;;;4987591;28;20059;-71
2022/01/13 04:47:30;;;;;;;;;;;0.50;99.90;;;;;;4987102;28;20059;-71
2022/01/13 04:49:59;;;;;;;;;;;0.50;99.90;;;;;;4985894;28;20065;-69
2022/01/13 04:52:26;;;;;;;;;;;0.40;99.90;;;;;;4986116;28;20060;-70
2022/01/13 04:54:53;;;;;;;;;;;0.40;99.90;;;;;;4985676;28;21062;-71
2022/01/13 04:57:20;;;;;;;;;;;0.40;99.90;;;;;;4987076;28;20065;-72
2022/01/13 04:59:48;;;;;;;;;;;0.40;99.90;;;;;;4985813;28;20090;-69
2022/01/13 05:02:16;;;;;;;;;;;0.40;99.90;;;;;;4985651;28;21179;-71
2022/01/13 05:04:43;;;;;;;;;;;0.30;99.90;;;;;;4985966;28;20150;-70
2022/01/13 05:07:12;;;;;;;;;;;0.30;99.90;;;;;;4986920;28;20061;-70
2022/01/13 05:09:39;;;;;;;;;;;0.30;99.90;;;;;;4985358;28;20052;-70
2022/01/13 05:12:06;;;;;;;;;;;0.30;99.90;;;;;;4992155;28;20244;-67
2022/01/13 05:14:34;;;;;;;;;;;0.30;99.90;;;;;;4989680;28;20051;-70
2022/01/13 05:17:07;;;;;;;;;;;0.20;99.90;;;;;;4980114;28;20191;-69
2022/01/13 05:19:38;;;;;;;;;;;0.20;99.90;;;;;;4986132;28;20999;-69
2022/01/13 05:22:16;;;;;;;;;;;0.20;99.90;;;;;;4985513;28;20051;-70
2022/01/13 05:24:46;;;;;;;;;;;0.30;99.90;;;;;;4986887;28;21089;-70
2022/01/13 05:27:13;;;;;;;;;;;0.30;99.90;;;;;;4986938;28;20085;-70
2022/01/13 05:29:40;;;;;;;;;;;0.30;99.90;;;;;;4986185;28;20099;-70
2022/01/13 05:32:08;;;;;;;;;;;0.30;99.90;;;;;;4985323;28;20069;-70
2022/01/13 05:34:35;;;;;;;;;;;0.30;99.90;;;;;;4983491;28;20061;-70
2022/01/13 05:37:02;;;;;;;;;;;0.20;99.90;;;;;;4972693;28;20076;-70
2022/01/13 05:39:29;;;;;;;;;;;0.20;99.90;;;;;;4966622;28;20092;-70
2022/01/13 05:41:58;;;;;;;;;;;0.20;99.90;;;;;;4965859;28;20067;-70
2022/01/13 05:44:25;;;;;;;;;;;0.20;99.90;;;;;;4965903;28;20998;-70
2022/01/13 05:46:52;;;;;;;;;;;0.10;99.90;;;;;;4967547;28;20060;-70
2022/01/13 05:49:19;;;;;;;;;;;0.00;99.90;;;;;;4965600;28;20080;-70
2022/01/13 05:51:46;;;;;;;;;;;0.00;99.90;;;;;;4966350;28;20061;-69
2022/01/13 05:54:13;;;;;;;;;;;0.00;99.90;;;;;;4966252;28;20150;-71
2022/01/13 05:56:40;;;;;;;;;;;0.00;99.90;;;;;;4965540;28;20278;-70
2022/01/13 05:59:09;;;;;;;;;;;0.00;99.90;;;;;;4965509;28;21181;-70
2022/01/13 06:01:36;;;;;;;;;;;0.10;99.90;;;;;;4961678;28;21193;-70
2022/01/13 06:04:03;;;;;;;;;;;0.10;99.90;;;;;;4976288;28;20069;-69
2022/01/13 06:06:30;;;;;;;;;;;0.10;99.90;;;;;;4982629;28;20060;-69
2022/01/13 06:08:57;;;;;;;;;;;0.10;99.90;;;;;;4984195;28;20342;-69
2022/01/13 06:11:27;;;;;;;;;;;0.00;99.90;;;;;;4976106;28;21193;-69
2022/01/13 06:13:54;;;;;;;;;;;0.00;99.90;;;;;;4964845;28;20271;-69
2022/01/13 06:16:23;;;;;;;;;;;0.00;99.90;;;;;;4965399;28;20052;-69
2022/01/13 06:18:50;;;;;;;;;;;0.00;99.90;;;;;;4965382;28;20083;-69
2022/01/13 06:21:18;;;;;;;;;;;0.00;99.90;;;;;;4986351;28;20356;-69
2022/01/13 06:23:45;;;;;;;;;;;0.00;99.90;;;;;;4982350;28;21036;-69
2022/01/13 06:26:12;;;;;;;;;;;0.00;99.90;;;;;;4983565;28;20149;-70
2022/01/13 06:28:39;;;;;;;;;;;0.00;99.90;;;;;;4965441;28;21203;-69
2022/01/13 06:31:06;;;;;;;;;;;0.00;99.90;;;;;;4993724;23;20161;-70
2022/01/13 06:33:35;;;;;;;;;;;0.00;99.90;;;;;;5004137;28;20161;-70
2022/01/13 06:36:04;;;;;;;;;;;0.00;99.90;;;;;;5004635;28;20091;-70
2022/01/13 06:38:31;;;;;;;;;;;0.00;99.90;;;;;;4987326;28;20058;-70
2022/01/13 06:40:58;;;;;;;;;;;0.00;99.90;;;;;;4982276;28;20082;-70
2022/01/13 06:43:25;;;;;;;;;;;-0.10;99.90;;;;;;4976832;28;21093;-69
2022/01/13 06:45:52;;;;;;;;;;;-0.10;99.90;;;;;;4986509;28;20077;-70
2022/01/13 06:48:19;;;;;;;;;;;-0.10;99.90;;;;;;4970095;28;20107;-70
2022/01/13 06:50:48;;;;;;;;;;;-0.20;99.90;;;;;;4973870;28;20095;-70
2022/01/13 06:53:15;;;;;;;;;;;-0.20;99.90;;;;;;4984589;28;20069;-70
2022/01/13 06:55:42;;;;;;;;;;;-0.20;99.90;;;;;;4986904;28;20141;-69
2022/01/13 06:58:09;;;;;;;;;;;-0.30;99.90;;;;;;4986215;28;20092;-69
2022/01/13 07:00:37;;;;;;;;;;;-0.30;99.90;;;;;;4987442;28;20065;-70
2022/01/13 07:03:04;;;;;;;;;;;-0.30;99.90;;;;;;4986929;28;20149;-70
2022/01/13 07:05:31;;;;;;;;;;;-0.30;99.90;;;;;;4983771;28;20193;-70
2022/01/13 07:08:00;;;;;;;;;;;-0.30;99.90;;;;;;4986603;28;20094;-70
2022/01/13 07:10:27;;;;;;;;;;;-0.30;99.90;;;;;;4986626;28;20101;-71
2022/01/13 07:12:54;;;;;;;;;;;-0.30;99.90;;;;;;4986495;28;20140;-69
2022/01/13 07:15:22;;;;;;;;;;;-0.30;99.90;;;;;;4987084;28;20060;-70
2022/01/13 07:17:49;;;;;;;;;;;-0.30;99.90;;;;;;4987123;28;20161;-70
2022/01/13 07:20:17;;;;;;;;;;;-0.30;99.90;;;;;;4986909;28;20061;-70
2022/01/13 07:22:44;;;;;;;;;;;-0.30;99.90;;;;;;4986226;28;20076;-69
2022/01/13 07:25:12;;;;;;;;;;;-0.30;99.90;;;;;;4987839;28;20076;-71
2022/01/13 07:27:40;;;;;;;;;;;-0.30;99.90;;;;;;4986871;28;20060;-71
2022/01/13 07:30:08;;;;;;;;;;;-0.30;99.90;;;;;;4987878;28;20061;-71
2022/01/13 07:32:35;;;;;;;;;;;-0.30;99.90;;;;;;4985722;28;20133;-71
2022/01/13 07:35:03;;;;;;;;;;;-0.30;99.90;;;;;;4986792;28;20154;-72
2022/01/13 07:37:30;;;;;;;;;;;-0.30;99.90;;;;;;4986568;28;20075;-71
2022/01/13 07:39:57;;;;;;;;;;;-0.30;99.90;;;;;;4986792;28;20064;-71
2022/01/13 07:42:26;;;;;;;;;;;-0.40;99.90;;;;;;4986259;28;20060;-71
2022/01/13 07:44:54;;;;;;;;;;;-0.40;99.90;;;;;;4986594;28;20084;-71
2022/01/13 07:47:21;;;;;;;;;;;-0.40;99.90;;;;;;4987134;28;20216;-71
2022/01/13 07:49:48;;;;;;;;;;;-0.40;99.90;;;;;;4986573;28;20197;-71
2022/01/13 07:52:15;;;;;;;;;;;-0.40;99.90;;;;;;4973992;28;20066;-71
2022/01/13 07:54:42;;;;;;;;;;;-0.40;99.90;;;;;;4972886;28;20107;-71
2022/01/13 07:57:09;;;;;;;;;;;-0.40;99.90;;;;;;4980526;28;20077;-70
2022/01/13 07:59:38;;;;;;;;;;;-0.40;99.90;;;;;;4976772;28;20067;-71
2022/01/13 08:02:06;;;;;;;;;;;-0.40;99.90;;;;;;4981118;28;21171;-71
2022/01/13 08:04:33;;;;;;;;;;;-0.40;99.90;;;;;;4991223;28;20161;-71
2022/01/13 08:07:00;;;;;;;;;;;-0.30;99.90;;;;;;4986802;28;20059;-71
2022/01/13 08:09:27;;;;;;;;;;;-0.30;99.90;;;;;;4986651;28;20052;-71
2022/01/13 08:11:54;;;;;;;;;;;-0.30;99.90;;;;;;4986106;28;20068;-70
2022/01/13 08:14:21;;;;;;;;;;;-0.30;99.90;;;;;;4986178;28;21125;-70
2022/01/13 08:16:55;;;;;;;;;;;-0.30;99.90;;;;;;4981326;28;21069;-71
2022/01/13 08:22:07;;;;;;;;;;;-0.20;99.90;;;;;;4986439;28;20214;-70
2022/01/13 08:24:34;;;;;;;;;;;-0.20;99.90;;;;;;4986678;28;20069;-71
2022/01/13 08:27:01;;;;;;;;;;;-0.20;99.90;;;;;;4986895;28;21125;-71
2022/01/13 08:29:28;;;;;;;;;;;-0.20;99.90;;;;;;4986354;28;20185;-71
2022/01/13 08:31:57;;;;;;;;;;;-0.30;99.90;;;;;;4986134;28;20162;-70
2022/01/13 08:34:25;;;;;;;;;;;-0.30;99.90;;;;;;4986988;28;20052;-71
2022/01/13 08:36:52;;;;;;;;;;;-0.20;99.90;;;;;;4986934;28;20068;-70
2022/01/13 08:39:19;;;;;;;;;;;-0.20;99.90;;;;;;4986032;28;20096;-71
2022/01/13 08:41:46;;;;;;;;;;;-0.20;99.90;;;;;;4987469;28;20067;-70
2022/01/13 08:44:13;;;;;;;;;;;-0.10;99.90;;;;;;4987855;28;20068;-69
2022/01/13 08:46:40;;;;;;;;;;;-0.20;99.90;;;;;;4991496;28;20062;-72
2022/01/13 08:49:10;;;;;;;;;;;-0.20;99.90;;;;;;4991200;28;20140;-72
2022/01/13 08:51:37;;;;;;;;;;;-0.10;99.90;;;;;;4991161;28;21256;-75
2022/01/13 08:54:04;;;;;;;;;;;-0.10;99.90;;;;;;4991259;28;20180;-74
2022/01/13 08:56:31;;;;;;;;;;;-0.10;99.90;;;;;;4989825;28;20065;-70
2022/01/13 08:58:58;;;;;;;;;;;0.00;99.90;;;;;;4988603;28;20078;-70
2022/01/13 09:01:25;;;;;;;;;;;0.00;99.90;;;;;;4990002;28;20059;-70
2022/01/13 09:03:53;;;;;;;;;;;0.00;99.90;;;;;;4972924;28;21165;-69
2022/01/13 09:06:21;;;;;;;;;;;0.00;99.90;;;;;;4969050;28;20085;-69
2022/01/13 09:08:49;;;;;;;;;;;0.10;99.90;;;;;;4985058;28;20178;-70
2022/01/13 09:11:16;;;;;;;;;;;0.10;99.90;;;;;;4969059;28;20187;-69
2022/01/13 09:13:43;;;;;;;;;;;0.20;99.90;;;;;;4970525;28;20068;-69
2022/01/13 09:16:16;;;;;;;;;;;0.30;99.90;;;;;;4988395;28;20084;-70
2022/01/13 09:19:07;;;;;;;;;;;0.40;99.90;;;;;;4989102;28;20196;-69
2022/01/13 09:21:37;;;;;;;;;;;0.50;99.90;;;;;;4988610;28;20074;-69
2022/01/13 09:24:05;;;;;;;;;;;0.50;99.90;;;;;;4987766;28;20071;-69
2022/01/13 09:26:32;;;;;;;;;;;0.50;99.90;;;;;;4988353;28;21157;-69
2022/01/13 09:29:00;;;;;;;;;;;0.50;99.90;;;;;;4988208;28;20096;-69
2022/01/13 09:31:27;;;;;;;;;;;0.50;99.90;;;;;;4986092;28;21359;-70
2022/01/13 09:33:55;;;;;;;;;;;0.40;99.90;;;;;;4979207;28;20161;-70
2022/01/13 09:36:22;;;;;;;;;;;0.40;99.90;;;;;;4988435;28;20060;-70
2022/01/13 09:38:51;;;;;;;;;;;0.50;99.90;;;;;;4987587;28;21023;-70
2022/01/13 09:41:19;;;;;;;;;;;0.50;99.90;;;;;;4987900;28;20060;-69
2022/01/13 09:43:46;;;;;;;;;;;0.60;99.90;;;;;;4986413;28;20100;-70
2022/01/13 09:46:14;;;;;;;;;;;0.60;99.90;;;;;;4986661;28;20064;-70
2022/01/13 09:48:43;;;;;;;;;;;0.60;99.90;;;;;;4987845;28;20060;-70
2022/01/13 09:51:10;;;;;;;;;;;0.50;99.90;;;;;;4988367;28;20082;-70
2022/01/13 09:53:37;;;;;;;;;;;0.70;99.90;;;;;;4987441;28;20202;-70
2022/01/13 09:56:07;;;;;;;;;;;0.90;99.90;;;;;;4987649;28;20077;-70
2022/01/13 09:58:35;;;;;;;;;;;0.90;99.90;;;;;;4978394;28;20083;-70
2022/01/13 10:01:02;;;;;;;;;;;1.30;99.90;;;;;;4981981;28;21052;-70
2022/01/13 10:03:29;;;;;;;;;;;1.40;99.90;;;;;;4984274;28;20053;-70
2022/01/13 10:05:57;;;;;;;;;;;1.60;99.90;;;;;;4986813;28;20082;-69
2022/01/13 10:08:40;;;;;;;;;;;1.70;99.90;;;;;;4987361;28;20182;-69
2022/01/13 10:11:21;;;;;;;;;;;2.00;99.90;;;;;;4987248;28;20084;-69
2022/01/13 10:14:00;;;;;;;;;;;2.20;99.90;;;;;;4987224;28;20051;-69
2022/01/13 10:16:28;;;;;;;;;;;2.20;99.90;;;;;;4987398;28;20086;-69
2022/01/13 10:18:55;;;;;;;;;;;2.20;99.90;;;;;;4986924;28;20053;-69
2022/01/13 10:21:22;;;;;;;;;;;2.20;99.90;;;;;;4987557;28;20069;-69
2022/01/13 10:24:03;;;;;;;;;;;2.20;99.90;;;;;;4986996;28;20057;-70
2022/01/13 10:26:31;;;;;;;;;;;2.40;99.90;;;;;;4982626;28;21077;-70
2022/01/13 10:29:00;;;;;;;;;;;2.60;99.90;;;;;;4986574;28;20083;-70
2022/01/13 10:31:45;;;;;;;;;;;2.70;99.90;;;;;;4987359;28;20138;-70
2022/01/13 10:34:23;;;;;;;;;;;2.80;99.90;;;;;;4986191;28;20061;-70
2022/01/13 10:37:04;;;;;;;;;;;2.80;99.90;;;;;;4987403;28;20100;-70
2022/01/13 10:39:52;;;;;;;;;;;2.80;99.90;;;;;;4987294;28;20072;-70
2022/01/13 10:43:06;;;;;;;;;;;2.80;99.90;;;;;;4978892;28;20068;-70
2022/01/13 10:45:35;;;;;;;;;;;2.90;99.90;;;;;;4985872;28;20052;-70
2022/01/13 10:48:03;;;;;;;;;;;3.10;99.90;;;;;;4987217;28;20060;-71
2022/01/13 10:50:31;;;;;;;;;;;3.70;99.90;;;;;;4986937;28;20066;-68
2022/01/13 10:53:04;;;;;;;;;;;6.70;99.90;;;;;;4987084;28;20092;-69
2022/01/13 10:55:32;;;;;;;;;;;9.70;99.90;;;;;;4986468;28;20162;-70
2022/01/13 10:58:00;;;;;;;;;;;12.30;99.90;;;;;;4985488;28;20059;-69
2022/01/13 11:00:30;;;;;;;;;;;14.00;99.90;;;;;;4980980;28;20210;-70
2022/01/13 11:03:03;;;;;;;;;;;15.20;99.90;;;;;;4979005;28;20085;-70
2022/01/13 11:05:31;;;;;;;;;;;16.20;99.90;;;;;;4988621;28;20066;-70
2022/01/13 11:08:01;;;;;;;;;;;17.10;99.90;;;;;;4987923;28;20162;-71
2022/01/13 11:10:28;;;;;;;;;;;17.90;99.90;;;;;;4988603;28;20231;-71
2022/01/13 11:12:59;;;;;;;;;;;18.50;99.90;;;;;;4987262;28;20288;-71
2022/01/13 11:15:27;;;;;;;;;;;18.80;99.90;;;;;;4987777;28;20050;-71
2022/01/13 11:17:54;;;;;;;;;;;19.30;99.90;;;;;;4982980;28;20077;-70
2022/01/13 11:20:23;;;;;;;;;;;19.70;99.90;;;;;;4984169;28;20060;-71
2022/01/13 11:22:51;;;;;;;;;;;20.10;99.90;;;;;;4967667;28;20066;-71
2022/01/13 11:25:19;;;;;;;;;;;20.00;99.90;;;;;;4968012;28;21174;-71
2022/01/13 11:27:47;;;;;;;;;;;19.20;99.90;;;;;;4967353;28;20060;-70
2022/01/13 11:30:15;;;;;;;;;;;19.80;99.90;;;;;;4967685;28;20060;-71
2022/01/13 11:32:43;;;;;;;;;;;20.00;99.90;;;;;;4967797;28;20069;-71
2022/01/13 11:35:11;;;;;;;;;;;19.80;99.90;;;;;;4967965;28;20060;-71
2022/01/13 11:37:40;;;;;;;;;;;20.40;99.90;;;;;;4967965;28;20060;-71
2022/01/13 11:40:08;;;;;;;;;;;21.20;99.90;;;;;;4967014;28;20060;-71
2022/01/13 11:42:45;;;;;;;;;;;21.70;99.90;;;;;;4966921;28;20201;-71
2022/01/13 11:45:13;;;;;;;;;;;21.60;99.90;;;;;;4967549;28;20068;-71
2022/01/13 11:47:40;;;;;;;;;;;22.50;99.90;;;;;;4968253;28;20149;-71
2022/01/13 11:50:15;;;;;;;;;;;23.00;99.90;;;;;;4967693;28;20077;-71
2022/01/13 11:52:48;;;;;;;;;;;22.90;99.90;;;;;;4966988;28;20191;-71
2022/01/13 11:55:25;;;;;;;;;;;23.10;99.90;;;;;;4967931;28;20088;-71
2022/01/13 11:57:52;;;;;;;;;;;22.90;99.90;;;;;;4967481;28;21158;-71
2022/01/13 12:00:22;;;;;;;;;;;23.40;99.90;;;;;;4966404;28;20097;-71
2022/01/13 12:02:49;;;;;;;;;;;24.10;99.90;;;;;;4984116;28;20051;-71
2022/01/13 12:05:18;;;;;;;;;;;24.00;99.90;;;;;;4983364;28;21189;-71
2022/01/13 12:07:47;;;;;;;;;;;24.90;99.90;;;;;;4980376;28;20196;-71
2022/01/13 12:10:29;;;;;;;;;;;25.40;99.90;;;;;;4984182;28;20052;-71
2022/01/13 12:12:56;;;;;;;;;;;25.00;99.90;;;;;;4985150;28;20207;-71
2022/01/13 12:15:24;;;;;;;;;;;24.00;99.90;;;;;;4987255;28;21032;-71
2022/01/13 12:17:52;;;;;;;;;;;24.00;99.90;;;;;;4986757;28;20052;-71
2022/01/13 12:20:24;;;;;;;;;;;24.10;99.90;;;;;;4988695;28;21153;-71
2022/01/13 12:23:02;;;;;;;;;;;24.30;99.90;;;;;;4981843;28;20059;-72
2022/01/13 12:25:32;;;;;;;;;;;24.10;99.90;;;;;;4990249;28;20076;-71
2022/01/13 12:28:00;;;;;;;;;;;24.70;99.90;;;;;;4989333;28;20067;-71
2022/01/13 12:30:28;;;;;;;;;;;25.00;99.90;;;;;;4989566;28;20158;-73
2022/01/13 12:32:57;;;;;;;;;;;25.20;99.90;;;;;;4990291;28;21120;-71
2022/01/13 12:35:42;;;;;;;;;;;25.40;99.90;;;;;;4990596;28;20100;-71
2022/01/13 12:38:12;;;;;;;;;;;25.80;99.90;;;;;;4989415;28;21155;-71
2022/01/13 12:40:43;;;;;;;;;;;26.50;99.90;;;;;;4989049;28;21160;-71
2022/01/13 12:43:21;;;;;;;;;;;26.50;99.90;;;;;;4989473;28;20060;-71
2022/01/13 12:45:49;;;;;;;;;;;26.60;99.90;;;;;;4990300;28;20133;-71
2022/01/13 12:48:16;;;;;;;;;;;27.20;99.90;;;;;;4989461;28;20116;-71
2022/01/13 12:50:45;;;;;;;;;;;28.00;99.90;;;;;;4989802;28;21090;-71
2022/01/13 12:53:16;;;;;;;;;;;27.90;99.90;;;;;;4989094;28;20078;-72
2022/01/13 12:55:45;;;;;;;;;;;28.60;99.90;;;;;;4989581;28;20067;-71
2022/01/13 12:58:12;;;;;;;;;;;28.30;99.90;;;;;;4989019;28;20069;-72
2022/01/13 13:00:40;;;;;;;;;;;28.00;99.90;;;;;;4989296;28;21141;-72
2022/01/13 13:03:08;;;;;;;;;;;28.20;99.90;;;;;;4989058;28;20067;-72
2022/01/13 13:05:44;;;;;;;;;;;28.30;99.90;;;;;;4989084;28;20060;-71
2022/01/13 13:08:12;;;;;;;;;;;28.00;99.90;;;;;;4988615;28;20170;-72
2022/01/13 13:10:44;;;;;;;;;;;27.90;99.90;;;;;;4989009;28;20214;-72
2022/01/13 13:13:12;;;;;;;;;;;28.30;99.90;;;;;;4989309;28;20066;-71
2022/01/13 13:15:42;;;;;;;;;;;28.10;99.90;;;;;;4988775;28;20093;-72
2022/01/13 13:18:10;;;;;;;;;;;28.10;99.90;;;;;;4988435;28;20075;-72
2022/01/13 13:20:39;;;;;;;;;;;27.50;99.90;;;;;;4990246;28;21206;-72
2022/01/13 13:23:07;;;;;;;;;;;27.90;99.90;;;;;;4990632;28;20067;-72
2022/01/13 13:25:36;;;;;;;;;;;26.60;99.30;;;;;;4986960;28;20074;-71
2022/01/13 13:28:31;;;;;;;;;;;26.50;99.80;;;;;;4984728;28;20051;-71
2022/01/13 13:30:58;;;;;;;;;;;27.00;99.70;;;;;;4986888;28;20060;-72
2022/01/13 13:33:36;;;;;;;;;;;27.40;99.70;;;;;;4987254;28;20100;-72
2022/01/13 13:36:05;;;;;;;;;;;27.60;99.90;;;;;;4988414;28;20140;-72
2022/01/13 13:38:32;;;;;;;;;;;27.80;99.50;;;;;;4987130;28;21048;-71
2022/01/13 13:40:59;;;;;;;;;;;27.50;99.70;;;;;;4984028;28;20073;-72
2022/01/13 13:43:34;;;;;;;;;;;27.80;99.20;;;;;;4986993;28;20095;-72
2022/01/13 13:46:03;;;;;;;;;;;27.80;98.90;;;;;;4984106;28;20066;-74
2022/01/13 13:48:30;;;;;;;;;;;27.60;97.80;;;;;;4989706;28;20181;-73
2022/01/13 13:50:57;;;;;;;;;;;27.20;96.60;;;;;;4989151;28;20100;-72
2022/01/13 13:53:25;;;;;;;;;;;26.80;96.50;;;;;;4987511;28;20069;-72
2022/01/13 13:55:57;;;;;;;;;;;27.50;96.80;;;;;;4986906;28;21068;-72
2022/01/13 13:58:24;;;;;;;;;;;27.70;96.70;;;;;;4979201;28;21137;-72
2022/01/13 14:00:59;;;;;;;;;;;27.20;95.70;;;;;;4979019;28;20109;-72
2022/01/13 14:03:37;;;;;;;;;;;25.90;95.60;;;;;;4979837;28;20091;-71
2022/01/13 14:06:05;;;;;;;;;;;25.10;95.80;;;;;;4989138;28;20051;-71
2022/01/13 14:08:32;;;;;;;;;;;25.90;96.20;;;;;;4988136;28;20092;-72
2022/01/13 14:11:07;;;;;;;;;;;26.00;95.50;;;;;;4989716;28;20060;-71
2022/01/13 14:13:34;;;;;;;;;;;26.30;96.00;;;;;;4988084;28;20140;-72
2022/01/13 14:16:05;;;;;;;;;;;25.90;95.10;;;;;;4987093;28;20069;-72
2022/01/13 14:18:36;;;;;;;;;;;26.10;95.50;;;;;;4986859;28;20120;-71
2022/01/13 14:21:04;;;;;;;;;;;25.50;95.10;;;;;;4988327;28;20090;-71
2022/01/13 14:23:31;;;;;;;;;;;26.00;95.50;;;;;;4987432;28;21186;-72
2022/01/13 14:26:02;;;;;;;;;;;25.10;95.10;;;;;;4988139;28;21110;-71
2022/01/13 14:28:30;;;;;;;;;;;24.90;95.30;;;;;;4982856;28;20141;-71
2022/01/13 14:31:01;;;;;;;;;;;24.50;95.10;;;;;;4972329;28;20060;-72
2022/01/13 14:33:30;;;;;;;;;;;24.50;95.40;;;;;;4995263;28;20068;-71
2022/01/13 14:36:01;;;;;;;;;;;23.90;95.50;;;;;;4987989;28;20610;-71
2022/01/13 14:50:15;;;;;;;;;;;24.70;96.00;;;;;;5092428;27;20059;-71
2022/01/13 14:52:42;;;;;;;;;;;24.40;96.40;;;;;;5077790;28;20067;-71
2022/01/13 14:55:09;;;;;;;;;;;23.80;96.40;;;;;;5043453;28;20081;-71